createdAt,value
2019-05-22T00:01:25.092Z,15.33
2019-05-22T00:02:36.146Z,14.03
2019-05-22T00:03:52.084Z,13.87
2019-05-22T00:05:03.360Z,13.67
2019-05-22T00:06:10.104Z,14.57
2019-05-22T00:07:16.350Z,14.03
2019-05-22T00:08:22.861Z,13.27
2019-05-22T00:09:38.378Z,15.03
2019-05-22T00:10:44.904Z,14.47
2019-05-22T00:11:52.244Z,14.83
2019-05-22T00:12:58.585Z,14.30
2019-05-22T00:14:05.668Z,14.47
2019-05-22T00:15:11.936Z,13.87
2019-05-22T00:16:17.477Z,14.37
2019-05-22T00:17:31.067Z,14.43
2019-05-22T00:18:35.864Z,14.17
2019-05-22T00:19:41.843Z,14.37
2019-05-22T00:20:47.282Z,13.80
2019-05-22T00:21:57.527Z,14.17
2019-05-22T00:23:08.314Z,14.50
2019-05-22T00:24:15.168Z,13.97
2019-05-22T00:25:23.362Z,14.57
2019-05-22T00:26:29.236Z,13.57
2019-05-22T00:27:35.348Z,13.80
2019-05-22T00:28:41.346Z,13.50
2019-05-22T00:29:47.168Z,14.37
2019-05-22T00:30:53.336Z,13.63
2019-05-22T00:31:58.854Z,13.70
2019-05-22T00:33:05.355Z,13.13
2019-05-22T00:34:11.511Z,14.07
2019-05-22T00:35:19.834Z,14.90
2019-05-22T00:36:24.750Z,12.80
2019-05-22T00:37:30.981Z,13.60
2019-05-22T00:38:36.439Z,14.00
2019-05-22T00:39:42.006Z,13.67
2019-05-22T00:40:51.490Z,13.80
2019-05-22T00:41:57.609Z,14.83
2019-05-22T00:43:10.726Z,12.83
2019-05-22T00:44:13.561Z,13.50
2019-05-22T00:45:20.141Z,13.67
2019-05-22T00:46:26.036Z,13.13
2019-05-22T00:47:33.823Z,12.63
2019-05-22T00:48:42.470Z,14.00
2019-05-22T00:49:50.440Z,13.53
2019-05-22T00:51:11.573Z,13.30
2019-05-22T00:52:46.385Z,13.03
2019-05-22T00:54:01.175Z,13.13
2019-05-22T00:55:22.272Z,11.53
2019-05-22T00:56:51.568Z,12.50
2019-05-22T00:58:24.581Z,12.67
2019-05-22T00:59:33.614Z,12.57
2019-05-22T01:00:45.860Z,12.47
2019-05-22T01:01:55.780Z,11.83
2019-05-22T01:03:03.033Z,12.10
2019-05-22T01:04:11.620Z,11.93
2019-05-22T01:05:20.262Z,11.73
2019-05-22T01:06:27.292Z,11.83
2019-05-22T01:07:42.661Z,11.43
2019-05-22T01:08:49.612Z,11.20
2019-05-22T01:09:58.232Z,11.93
2019-05-22T01:11:04.871Z,12.47
2019-05-22T01:12:17.176Z,12.60
2019-05-22T01:13:22.912Z,12.23
2019-05-22T01:14:41.902Z,12.93
2019-05-22T01:15:35.893Z,13.30
2019-05-22T01:16:43.456Z,13.13
2019-05-22T01:17:50.894Z,12.13
2019-05-22T01:18:58.448Z,13.70
2019-05-22T01:20:05.254Z,13.43
2019-05-22T01:21:13.480Z,14.33
2019-05-22T01:22:20.364Z,14.60
2019-05-22T01:23:26.148Z,14.93
2019-05-22T01:24:33.363Z,14.83
2019-05-22T01:25:39.548Z,13.83
2019-05-22T01:26:46.746Z,14.90
2019-05-22T01:27:52.432Z,14.23
2019-05-22T01:28:57.668Z,13.47
2019-05-22T01:30:05.137Z,13.27
2019-05-22T01:31:16.256Z,13.30
2019-05-22T01:32:40.492Z,13.13
2019-05-22T01:34:13.528Z,12.97
2019-05-22T01:35:22.781Z,14.63
2019-05-22T01:36:40.945Z,12.67
2019-05-22T01:37:46.710Z,13.60
2019-05-22T01:38:53.958Z,15.10
2019-05-22T01:40:05.217Z,15.07
2019-05-22T01:41:18.733Z,15.27
2019-05-22T01:42:33.497Z,15.00
2019-05-22T01:43:40.516Z,14.97
2019-05-22T01:44:59.740Z,14.63
2019-05-22T01:45:54.410Z,15.07
2019-05-22T01:47:04.422Z,14.90
2019-05-22T01:48:16.000Z,14.73
2019-05-22T01:49:21.905Z,14.57
2019-05-22T01:50:51.238Z,14.00
2019-05-22T01:51:57.848Z,13.47
2019-05-22T01:53:04.461Z,12.50
2019-05-22T01:54:11.327Z,12.70
2019-05-22T01:55:18.796Z,13.53
2019-05-22T01:56:24.910Z,12.20
2019-05-22T01:57:31.356Z,12.40
2019-05-22T01:58:39.263Z,13.67
2019-05-22T01:59:45.929Z,12.30
2019-05-22T02:00:55.575Z,12.10
2019-05-22T02:02:01.886Z,13.50
2019-05-22T02:03:08.378Z,13.73
2019-05-22T02:04:14.920Z,14.70
2019-05-22T02:05:21.012Z,13.63
2019-05-22T02:06:29.144Z,14.60
2019-05-22T02:07:34.541Z,14.13
2019-05-22T02:08:44.678Z,13.53
2019-05-22T02:09:51.816Z,13.87
2019-05-22T02:11:00.616Z,14.13
2019-05-22T02:12:13.861Z,13.67
2019-05-22T02:13:26.374Z,14.27
2019-05-22T02:14:32.549Z,14.77
2019-05-22T02:15:38.186Z,13.83
2019-05-22T02:16:56.023Z,13.07
2019-05-22T02:17:56.413Z,13.53
2019-05-22T02:19:02.623Z,13.80
2019-05-22T02:20:10.184Z,13.73
2019-05-22T02:21:17.079Z,13.57
2019-05-22T02:22:22.757Z,13.33
2019-05-22T02:23:29.462Z,13.07
2019-05-22T02:24:35.025Z,14.03
2019-05-22T02:25:40.580Z,13.20
2019-05-22T02:26:46.986Z,13.70
2019-05-22T02:27:52.070Z,13.63
2019-05-22T02:28:59.389Z,14.33
2019-05-22T02:30:05.736Z,12.90
2019-05-22T02:31:12.251Z,13.63
2019-05-22T02:32:18.703Z,11.07
2019-05-22T02:33:25.370Z,12.37
2019-05-22T02:34:32.211Z,11.40
2019-05-22T02:35:38.481Z,10.73
2019-05-22T02:36:45.166Z,10.40
2019-05-22T02:37:51.014Z,11.33
2019-05-22T02:38:56.543Z,11.27
2019-05-22T02:40:03.223Z,11.33
2019-05-22T02:41:13.965Z,11.23
2019-05-22T02:42:21.985Z,10.80
2019-05-22T02:43:27.983Z,10.67
2019-05-22T02:44:34.013Z,11.60
2019-05-22T02:45:39.628Z,13.47
2019-05-22T02:46:45.439Z,12.27
2019-05-22T02:47:52.887Z,14.30
2019-05-22T02:48:59.041Z,13.10
2019-05-22T02:50:06.023Z,13.40
2019-05-22T02:51:11.734Z,12.40
2019-05-22T02:52:17.489Z,13.00
2019-05-22T02:53:24.098Z,13.23
2019-05-22T02:54:31.677Z,13.07
2019-05-22T02:55:38.287Z,12.50
2019-05-22T02:56:43.189Z,11.73
2019-05-22T02:57:48.853Z,11.80
2019-05-22T02:58:55.820Z,11.20
2019-05-22T03:00:01.406Z,11.13
2019-05-22T03:01:06.712Z,11.20
2019-05-22T03:02:15.185Z,10.97
2019-05-22T03:03:20.536Z,9.97
2019-05-22T03:04:27.933Z,11.00
2019-05-22T03:05:32.937Z,11.60
2019-05-22T03:06:39.295Z,11.60
2019-05-22T03:07:47.663Z,11.17
2019-05-22T03:09:29.040Z,11.83
2019-05-22T03:10:35.608Z,14.43
2019-05-22T03:11:43.875Z,14.37
2019-05-22T03:12:52.137Z,13.40
2019-05-22T03:14:01.773Z,13.00
2019-05-22T03:15:09.904Z,13.80
2019-05-22T03:16:15.553Z,14.10
2019-05-22T03:17:32.693Z,13.20
2019-05-22T03:18:38.073Z,13.07
2019-05-22T03:19:46.001Z,13.27
2019-05-22T03:20:51.142Z,13.87
2019-05-22T03:21:58.253Z,13.63
2019-05-22T03:23:36.504Z,13.03
2019-05-22T03:24:42.249Z,13.07
2019-05-22T03:25:48.010Z,13.40
2019-05-22T03:26:54.159Z,13.40
2019-05-22T03:27:59.973Z,13.50
2019-05-22T03:29:06.237Z,13.47
2019-05-22T03:30:20.097Z,14.17
2019-05-22T03:31:26.869Z,13.23
2019-05-22T03:32:32.469Z,13.50
2019-05-22T03:33:39.382Z,13.73
2019-05-22T03:34:45.914Z,13.00
2019-05-22T03:35:54.882Z,14.17
2019-05-22T03:36:59.861Z,14.00
2019-05-22T03:38:06.644Z,14.40
2019-05-22T03:39:12.755Z,14.00
2019-05-22T03:40:18.710Z,14.03
2019-05-22T03:41:24.361Z,14.50
2019-05-22T03:42:29.720Z,13.60
2019-05-22T03:43:36.236Z,14.47
2019-05-22T03:44:41.909Z,14.10
2019-05-22T03:45:48.014Z,12.87
2019-05-22T03:46:54.806Z,12.37
2019-05-22T03:48:03.083Z,12.30
2019-05-22T03:49:28.059Z,12.43
2019-05-22T03:50:17.989Z,13.17
2019-05-22T03:51:24.280Z,12.90
2019-05-22T03:52:30.920Z,13.63
2019-05-22T03:53:36.623Z,13.33
2019-05-22T03:54:43.729Z,13.80
2019-05-22T03:55:50.314Z,14.00
2019-05-22T03:56:56.006Z,14.17
2019-05-22T03:58:01.663Z,13.70
2019-05-22T03:59:08.673Z,12.90
2019-05-22T04:00:18.047Z,13.07
2019-05-22T04:01:23.521Z,12.93
2019-05-22T04:02:29.139Z,13.00
2019-05-22T04:03:35.229Z,11.67
2019-05-22T04:04:42.823Z,11.40
2019-05-22T04:05:48.873Z,10.90
2019-05-22T04:06:55.445Z,13.10
2019-05-22T04:08:05.370Z,13.10
2019-05-22T04:09:23.000Z,13.07
2019-05-22T04:10:31.638Z,13.03
2019-05-22T04:11:40.436Z,11.90
2019-05-22T04:12:45.564Z,11.47
2019-05-22T04:13:51.211Z,11.97
2019-05-22T04:14:56.206Z,11.63
2019-05-22T04:16:03.029Z,12.20
2019-05-22T04:17:10.522Z,11.43
2019-05-22T04:18:22.758Z,10.70
2019-05-22T04:19:25.822Z,12.53
2019-05-22T04:20:32.025Z,11.90
2019-05-22T04:21:37.858Z,11.53
2019-05-22T04:22:43.616Z,11.50
2019-05-22T04:23:48.864Z,11.40
2019-05-22T04:24:55.357Z,11.40
2019-05-22T04:26:01.892Z,12.10
2019-05-22T04:27:09.469Z,10.70
2019-05-22T04:28:15.092Z,10.80
2019-05-22T04:29:21.022Z,10.47
2019-05-22T04:30:26.320Z,10.40
2019-05-22T04:31:52.262Z,10.57
2019-05-22T04:32:57.712Z,10.63
2019-05-22T04:34:03.393Z,9.87
2019-05-22T04:35:12.304Z,10.37
2019-05-22T04:36:19.071Z,9.83
2019-05-22T04:37:25.249Z,9.77
2019-05-22T04:38:32.120Z,9.60
2019-05-22T04:39:39.061Z,10.30
2019-05-22T04:40:49.864Z,10.53
2019-05-22T04:41:56.681Z,9.87
2019-05-22T04:43:03.081Z,9.60
2019-05-22T04:44:08.347Z,10.60
2019-05-22T04:45:16.144Z,9.90
2019-05-22T04:46:21.962Z,10.10
2019-05-22T04:47:28.270Z,9.80
2019-05-22T04:48:35.452Z,9.97
2019-05-22T04:49:42.178Z,8.83
2019-05-22T04:50:47.525Z,9.27
2019-05-22T04:51:53.544Z,8.67
2019-05-22T04:52:59.087Z,9.77
2019-05-22T04:54:05.013Z,9.77
2019-05-22T04:55:11.628Z,9.77
2019-05-22T04:56:17.081Z,9.90
2019-05-22T04:57:22.255Z,9.70
2019-05-22T04:58:30.381Z,9.90
2019-05-22T04:59:36.610Z,9.60
2019-05-22T05:00:42.954Z,9.53
2019-05-22T05:01:48.449Z,9.30
2019-05-22T05:02:54.317Z,9.63
2019-05-22T05:04:01.623Z,9.83
2019-05-22T05:05:07.671Z,9.80
2019-05-22T05:06:13.229Z,8.57
2019-05-22T05:07:19.756Z,8.83
2019-05-22T05:08:25.293Z,8.83
2019-05-22T05:09:31.588Z,9.10
2019-05-22T05:10:36.745Z,8.80
2019-05-22T05:11:43.090Z,8.80
2019-05-22T05:12:48.320Z,9.00
2019-05-22T05:13:54.175Z,9.27
2019-05-22T05:14:59.643Z,9.47
2019-05-22T05:16:05.473Z,9.03
2019-05-22T05:17:11.266Z,9.23
2019-05-22T05:18:17.454Z,8.83
2019-05-22T05:19:22.640Z,9.00
2019-05-22T05:20:28.476Z,8.87
2019-05-22T05:21:33.652Z,9.17
2019-05-22T05:22:46.681Z,8.43
2019-05-22T05:23:52.036Z,8.40
2019-05-22T05:24:57.733Z,8.73
2019-05-22T05:26:03.355Z,8.53
2019-05-22T05:27:10.349Z,9.13
2019-05-22T05:28:16.688Z,8.50
2019-05-22T05:29:33.001Z,8.63
2019-05-22T05:30:38.011Z,8.40
2019-05-22T05:31:43.699Z,8.43
2019-05-22T05:32:48.800Z,9.07
2019-05-22T05:34:13.290Z,8.77
2019-05-22T05:35:20.271Z,8.40
2019-05-22T05:36:26.261Z,8.63
2019-05-22T05:37:32.275Z,8.97
2019-05-22T05:38:40.155Z,8.37
2019-05-22T05:40:26.836Z,9.00
2019-05-22T05:41:33.243Z,8.60
2019-05-22T05:42:38.733Z,9.23
2019-05-22T05:43:44.353Z,8.73
2019-05-22T05:44:49.440Z,8.97
2019-05-22T05:45:55.472Z,8.13
2019-05-22T05:47:01.322Z,8.30
2019-05-22T05:48:09.329Z,8.27
2019-05-22T05:49:15.618Z,8.00
2019-05-22T05:50:37.841Z,9.43
2019-05-22T05:51:34.204Z,8.33
2019-05-22T05:52:41.005Z,8.30
2019-05-22T05:54:08.990Z,7.80
2019-05-22T05:55:16.709Z,8.63
2019-05-22T05:56:21.926Z,7.93
2019-05-22T05:58:16.061Z,8.23
2019-05-22T05:59:23.789Z,8.70
2019-05-22T06:00:33.320Z,7.67
2019-05-22T06:01:58.490Z,8.40
2019-05-22T06:03:12.158Z,8.43
2019-05-22T06:04:34.978Z,8.17
2019-05-22T06:05:39.136Z,8.20
2019-05-22T06:07:22.244Z,8.27
2019-05-22T06:08:28.557Z,8.67
2019-05-22T16:57:44.767Z,4.63
2019-05-22T16:58:51.532Z,4.60
2019-05-22T16:59:58.619Z,4.37
2019-05-22T17:01:04.812Z,4.70
2019-05-22T17:02:12.352Z,4.60
2019-05-22T17:03:18.101Z,4.60
2019-05-22T17:04:23.130Z,4.63
2019-05-22T17:05:28.928Z,4.43
2019-05-22T17:06:34.475Z,4.30
2019-05-22T17:07:41.992Z,4.40
2019-05-22T17:08:47.535Z,4.60
2019-05-22T17:09:54.418Z,3.77
2019-05-22T17:11:02.315Z,4.73
2019-05-22T17:12:10.490Z,4.70
2019-05-22T17:13:16.792Z,4.23
2019-05-22T17:14:24.254Z,3.97
2019-05-22T17:15:30.857Z,4.20
2019-05-22T17:16:40.393Z,4.63
2019-05-22T17:17:45.856Z,4.30
2019-05-22T17:18:51.415Z,4.43
2019-05-22T17:19:56.578Z,4.50
2019-05-22T17:21:03.759Z,4.07
2019-05-22T17:22:10.628Z,3.73
2019-05-22T17:23:16.291Z,4.10
2019-05-22T17:24:21.714Z,4.03
2019-05-22T17:25:28.728Z,4.30
2019-05-22T17:26:34.043Z,4.03
2019-05-22T17:27:39.575Z,4.03
2019-05-22T17:28:44.845Z,4.40
2019-05-22T17:29:52.210Z,3.97
2019-05-22T17:30:58.943Z,4.40
2019-05-22T17:32:05.879Z,4.13
2019-05-22T17:33:11.928Z,4.10
2019-05-22T17:34:33.717Z,4.43
2019-05-22T17:35:39.453Z,4.03
2019-05-22T17:36:45.158Z,4.90
2019-05-22T17:37:50.083Z,4.27
2019-05-22T17:38:58.002Z,4.57
2019-05-22T17:40:04.351Z,4.93
2019-05-22T17:41:11.103Z,4.63
2019-05-22T17:42:19.213Z,4.50
2019-05-22T17:43:26.323Z,4.53
2019-05-22T17:44:32.184Z,4.27
2019-05-22T17:45:37.965Z,4.47
2019-05-22T17:46:44.765Z,4.67
2019-05-22T17:47:51.857Z,4.27
2019-05-22T17:48:59.589Z,4.37
2019-05-22T17:50:05.779Z,4.40
2019-05-22T17:51:12.211Z,4.60
2019-05-22T17:52:18.835Z,4.77
2019-05-22T17:53:25.191Z,4.50
2019-05-22T17:54:30.828Z,4.60
2019-05-22T17:55:35.871Z,4.83
2019-05-22T17:56:42.008Z,4.50
2019-05-22T17:57:47.199Z,4.60
2019-05-22T17:58:53.029Z,5.00
2019-05-22T17:59:58.124Z,5.17
2019-05-22T18:01:03.845Z,5.00
2019-05-22T18:02:11.043Z,4.80
2019-05-22T18:03:17.673Z,5.03
2019-05-22T18:04:23.249Z,4.90
2019-05-22T18:05:30.732Z,5.67
2019-05-22T18:06:35.904Z,6.37
2019-05-22T18:07:42.454Z,5.80
2019-05-22T18:08:48.010Z,5.60
2019-05-22T18:09:53.657Z,6.03
2019-05-22T18:11:01.052Z,5.37
2019-05-22T18:12:08.240Z,6.30
2019-05-22T18:13:14.296Z,5.60
2019-05-22T18:14:20.172Z,6.30
2019-05-22T18:15:25.934Z,6.70
2019-05-22T18:16:33.361Z,6.57
2019-05-22T18:17:39.386Z,5.90
2019-05-22T18:18:44.892Z,6.43
2019-05-22T18:19:49.707Z,6.73
2019-05-22T18:20:55.459Z,6.47
2019-05-22T18:22:01.204Z,6.70
2019-05-22T18:23:07.246Z,7.03
2019-05-22T18:24:12.529Z,6.40
2019-05-22T18:25:18.566Z,7.80
2019-05-22T18:26:24.160Z,7.00
2019-05-22T18:27:31.486Z,7.07
2019-05-22T18:28:36.438Z,7.83
2019-05-22T18:29:41.858Z,6.50
2019-05-22T18:30:47.049Z,7.20
2019-05-22T18:31:53.095Z,7.10
2019-05-22T18:32:57.955Z,6.60
2019-05-22T18:34:03.400Z,7.30
2019-05-22T18:35:09.604Z,6.47
2019-05-22T18:36:15.243Z,7.13
2019-05-22T18:37:20.187Z,7.20
2019-05-22T18:38:25.970Z,6.43
2019-05-22T18:39:30.910Z,7.27
2019-05-22T18:40:36.464Z,6.57
2019-05-22T18:41:41.514Z,6.90
2019-05-22T18:42:47.612Z,7.50
2019-05-22T18:43:52.793Z,7.07
2019-05-22T18:44:58.475Z,7.10
2019-05-22T18:46:03.719Z,7.00
2019-05-22T18:47:10.860Z,7.80
2019-05-22T18:48:15.834Z,8.10
2019-05-22T18:49:21.457Z,7.73
2019-05-22T18:50:27.436Z,6.87
2019-05-22T18:51:33.026Z,7.10
2019-05-22T18:52:41.559Z,7.20
2019-05-22T18:53:47.349Z,7.17
2019-05-22T18:54:52.334Z,7.80
2019-05-22T18:55:57.976Z,7.83
2019-05-22T18:57:02.937Z,7.00
2019-05-22T18:58:08.769Z,6.97
2019-05-22T18:59:13.717Z,7.40
2019-05-22T19:00:22.363Z,7.83
2019-05-22T19:01:27.810Z,7.63
2019-05-22T19:02:33.518Z,8.07
2019-05-22T19:03:38.778Z,7.67
2019-05-22T19:04:44.462Z,8.37
2019-05-22T19:05:49.320Z,7.60
2019-05-22T19:06:56.093Z,8.53
2019-05-22T19:08:01.069Z,8.20
2019-05-22T19:09:08.593Z,7.90
2019-05-22T19:10:14.827Z,8.27
2019-05-22T19:11:20.266Z,8.00
2019-05-22T19:12:25.319Z,8.67
2019-05-22T19:13:30.986Z,8.53
2019-05-22T19:14:36.522Z,8.63
2019-05-22T19:15:42.358Z,8.17
2019-05-22T19:16:47.408Z,8.13
2019-05-22T19:17:53.308Z,8.20
2019-05-22T19:18:58.228Z,9.40
2019-05-22T19:20:03.826Z,8.07
2019-05-22T19:21:09.670Z,8.33
2019-05-22T19:22:15.391Z,8.30
2019-05-22T19:23:20.488Z,8.87
2019-05-22T19:24:26.291Z,8.07
2019-05-22T19:25:31.636Z,8.23
2019-05-22T19:26:37.828Z,9.53
2019-05-22T19:27:42.941Z,10.20
2019-05-22T19:28:48.396Z,9.57
2019-05-22T19:29:53.289Z,9.93
2019-05-22T19:30:58.962Z,11.10
2019-05-22T19:32:04.000Z,10.43
2019-05-22T19:33:09.882Z,10.37
2019-05-22T19:34:15.178Z,10.10
2019-05-22T19:35:20.931Z,10.53
2019-05-22T19:36:26.077Z,10.50
2019-05-22T19:37:31.798Z,10.70
2019-05-22T19:38:36.760Z,11.13
2019-05-22T19:39:42.318Z,11.63
2019-05-22T19:40:47.545Z,11.43
2019-05-22T19:42:01.912Z,11.10
2019-05-22T19:43:00.081Z,12.70
2019-05-22T19:44:07.223Z,11.90
2019-05-22T19:45:13.047Z,11.57
2019-05-22T19:46:19.648Z,11.97
2019-05-22T19:47:25.061Z,12.07
2019-05-22T19:48:31.723Z,11.50
2019-05-22T19:49:36.894Z,10.87
2019-05-22T19:50:43.055Z,12.20
2019-05-22T19:51:49.746Z,12.13
2019-05-22T19:52:57.542Z,13.03
2019-05-22T19:54:03.231Z,11.70
2019-05-22T19:55:10.612Z,12.57
2019-05-22T19:56:15.842Z,12.70
2019-05-22T19:57:21.600Z,12.20
2019-05-22T19:58:27.806Z,12.70
2019-05-22T19:59:33.531Z,11.97
2019-05-22T20:00:38.834Z,10.60
2019-05-22T20:01:44.599Z,11.17
2019-05-22T20:02:50.894Z,10.53
2019-05-22T20:03:56.995Z,9.53
2019-05-22T20:05:02.153Z,10.43
2019-05-22T20:06:07.818Z,10.70
2019-05-22T20:07:14.534Z,10.87
2019-05-22T20:08:20.500Z,12.67
2019-05-22T20:09:25.995Z,12.70
2019-05-22T20:10:33.059Z,14.10
2019-05-22T20:11:38.770Z,13.53
2019-05-22T20:12:47.749Z,14.43
2019-05-22T20:13:52.922Z,15.10
2019-05-22T20:14:59.731Z,14.37
2019-05-22T20:16:05.409Z,14.50
2019-05-22T20:17:11.542Z,15.23
2019-05-22T20:18:16.816Z,15.27
2019-05-22T20:19:22.601Z,14.87
2019-05-22T20:20:28.656Z,15.30
2019-05-22T20:21:34.365Z,15.87
2019-05-22T20:22:42.340Z,15.43
2019-05-22T20:23:48.552Z,15.93
2019-05-22T20:24:53.990Z,16.30
2019-05-22T20:25:59.737Z,16.10
2019-05-22T20:27:09.510Z,16.27
2019-05-22T20:28:14.082Z,16.63
2019-05-22T20:29:20.082Z,16.50
2019-05-22T20:30:26.902Z,16.43
2019-05-22T20:31:32.366Z,16.50
2019-05-22T20:32:39.038Z,15.73
2019-05-22T20:33:44.263Z,16.50
2019-05-22T20:34:50.165Z,16.20
2019-05-22T20:35:55.564Z,17.50
2019-05-22T20:37:01.496Z,16.30
2019-05-22T20:38:07.588Z,16.27
2019-05-22T20:39:17.978Z,15.90
2019-05-22T20:40:23.993Z,15.07
2019-05-22T20:41:29.914Z,15.83
2019-05-22T20:42:36.077Z,16.17
2019-05-22T20:43:42.131Z,14.80
2019-05-22T20:44:47.648Z,14.77
2019-05-22T20:45:56.307Z,14.37
2019-05-22T20:47:02.798Z,14.83
2019-05-22T20:48:14.781Z,13.97
2019-05-22T20:49:20.386Z,15.03
2019-05-22T20:50:26.356Z,15.27
2019-05-22T20:51:31.889Z,15.13
2019-05-22T20:52:37.991Z,14.80
2019-05-22T20:53:54.171Z,14.43
2019-05-22T20:54:53.457Z,15.00
2019-05-22T20:56:01.293Z,14.97
2019-05-22T20:57:08.000Z,15.27
2019-05-22T20:58:14.574Z,15.47
2019-05-22T20:59:21.447Z,14.87
2019-05-22T21:00:27.515Z,15.37
2019-05-22T21:01:35.555Z,16.00
2019-05-22T21:02:44.057Z,16.30
2019-05-22T21:03:50.557Z,16.40
2019-05-22T21:04:57.672Z,16.13
2019-05-22T21:06:07.724Z,16.47
2019-05-22T21:07:16.063Z,17.60
2019-05-22T21:08:25.208Z,18.03
2019-05-22T21:09:31.987Z,18.37
2019-05-22T21:10:38.195Z,18.53
2019-05-22T21:11:44.674Z,18.07
2019-05-22T21:12:51.586Z,18.73
2019-05-22T21:13:56.661Z,19.43
2019-05-22T21:15:02.576Z,18.67
2019-05-22T21:16:09.631Z,19.90
2019-05-22T21:17:17.532Z,19.10
2019-05-22T21:18:28.422Z,19.63
2019-05-22T21:19:35.753Z,19.67
2019-05-22T21:20:54.333Z,20.80
2019-05-22T21:21:48.818Z,20.17
2019-05-22T21:22:54.436Z,20.03
2019-05-22T21:24:09.855Z,20.57
2019-05-22T21:25:08.103Z,21.13
2019-05-22T21:26:13.792Z,21.07
2019-05-22T21:27:19.479Z,20.50
2019-05-22T21:28:26.287Z,21.70
2019-05-22T21:29:33.668Z,21.60
2019-05-22T21:30:40.618Z,20.37
2019-05-22T21:31:47.924Z,20.83
2019-05-22T21:32:54.329Z,20.53
2019-05-22T21:33:59.919Z,21.90
2019-05-22T21:35:06.488Z,21.93
2019-05-22T21:36:14.198Z,21.60
2019-05-22T21:37:21.510Z,20.83
2019-05-22T21:38:28.206Z,20.77
2019-05-22T21:39:34.494Z,21.53
2019-05-22T21:40:40.697Z,22.47
2019-05-22T21:41:47.058Z,22.33
2019-05-22T21:42:53.606Z,21.73
2019-05-22T21:43:59.469Z,21.47
2019-05-22T21:45:05.276Z,20.37
2019-05-22T21:46:11.280Z,23.40
2019-05-22T21:47:16.406Z,22.37
2019-05-22T21:48:22.436Z,22.43
2019-05-22T21:49:30.035Z,22.27
2019-05-22T21:50:35.918Z,22.97
2019-05-22T21:51:41.278Z,23.27
2019-05-22T21:52:47.563Z,21.67
2019-05-22T21:53:53.282Z,22.37
2019-05-22T21:54:58.937Z,23.37
2019-05-22T21:56:06.250Z,23.40
2019-05-22T21:57:12.321Z,23.00
2019-05-22T21:58:18.627Z,22.10
2019-05-22T21:59:24.301Z,22.20
2019-05-22T22:00:52.212Z,21.53
2019-05-22T22:02:03.673Z,23.27
2019-05-22T22:03:08.805Z,22.17
2019-05-22T22:04:34.516Z,22.23
2019-05-22T22:05:40.083Z,22.90
2019-05-22T22:06:46.369Z,22.93
2019-05-22T22:07:51.872Z,22.17
2019-05-22T22:08:57.693Z,21.60
2019-05-22T22:10:02.751Z,23.13
2019-05-22T22:11:09.537Z,22.13
2019-05-22T22:12:18.481Z,21.47
2019-05-22T22:13:24.485Z,21.90
2019-05-22T22:14:31.465Z,22.10
2019-05-22T22:15:41.593Z,21.50
2019-05-22T22:16:48.007Z,20.83
2019-05-22T22:17:53.861Z,22.27
2019-05-22T22:19:00.052Z,21.30
2019-05-22T22:20:07.580Z,22.53
2019-05-22T22:21:14.708Z,22.13
2019-05-22T22:22:27.722Z,22.07
2019-05-22T22:23:34.246Z,22.73
2019-05-22T22:24:40.525Z,22.80
2019-05-22T22:25:45.817Z,22.00
2019-05-22T22:26:51.690Z,21.80
2019-05-22T22:27:56.928Z,22.43
2019-05-22T22:29:03.461Z,22.53
2019-05-22T22:30:15.476Z,22.37
2019-05-22T22:31:22.868Z,22.20
2019-05-22T22:32:29.933Z,21.40
2019-05-22T22:33:36.594Z,22.00
2019-05-22T22:34:51.810Z,23.47
2019-05-22T22:35:57.736Z,22.40
2019-05-22T22:37:02.798Z,23.33
2019-05-22T22:38:08.907Z,23.70
2019-05-22T22:39:15.318Z,23.40
2019-05-22T22:40:24.576Z,22.60
2019-05-22T22:41:29.747Z,23.77
2019-05-22T22:42:37.090Z,24.03
2019-05-22T22:43:45.092Z,24.30
2019-05-22T22:44:55.022Z,24.57
2019-05-22T22:46:11.784Z,24.90
2019-05-22T22:47:20.601Z,24.23
2019-05-22T22:48:32.031Z,23.90
2019-05-22T22:49:38.622Z,25.20
2019-05-22T22:50:45.313Z,25.40
2019-05-22T22:51:53.054Z,26.73
2019-05-22T22:52:59.134Z,25.10
2019-05-22T22:54:07.336Z,25.10
2019-05-22T22:55:14.427Z,26.63
2019-05-22T22:56:21.649Z,23.67
2019-05-22T22:57:27.261Z,24.23
2019-05-22T22:58:33.904Z,23.73
2019-05-22T22:59:41.092Z,24.17
2019-05-22T23:00:48.041Z,23.80
2019-05-22T23:01:56.850Z,23.00
2019-05-22T23:03:03.802Z,22.60
2019-05-22T23:04:10.759Z,22.80
2019-05-22T23:05:18.599Z,22.47
2019-05-22T23:06:23.764Z,22.00
2019-05-22T23:07:31.334Z,21.63
2019-05-22T23:08:37.994Z,19.57
2019-05-22T23:09:44.896Z,21.33
2019-05-22T23:10:51.106Z,20.33
2019-05-22T23:11:57.607Z,19.10
2019-05-22T23:13:03.710Z,20.57
2019-05-22T23:14:09.684Z,21.30
2019-05-22T23:15:18.467Z,19.53
2019-05-22T23:16:26.316Z,20.63
2019-05-22T23:17:32.382Z,20.63
2019-05-22T23:19:18.936Z,22.30
2019-05-22T23:20:22.886Z,20.37
2019-05-22T23:21:25.948Z,22.20
2019-05-22T23:22:29.908Z,22.03
2019-05-22T23:23:32.835Z,21.30
2019-05-22T23:24:42.168Z,21.33
2019-05-22T23:25:47.204Z,22.10
2019-05-22T23:26:53.177Z,21.60
2019-05-22T23:27:59.204Z,21.17
2019-05-22T23:29:05.734Z,22.57
2019-05-22T23:30:11.038Z,21.10
2019-05-22T23:31:16.665Z,21.00
2019-05-22T23:32:23.016Z,20.13
2019-05-22T23:33:30.319Z,20.50
2019-05-22T23:34:35.628Z,21.70
2019-05-22T23:35:41.105Z,21.53
2019-05-22T23:36:46.556Z,20.90
2019-05-22T23:37:52.485Z,22.00
2019-05-22T23:38:59.697Z,21.77
2019-05-22T23:40:06.581Z,22.17
2019-05-22T23:41:12.705Z,21.63
2019-05-22T23:42:26.487Z,21.47
2019-05-22T23:43:32.335Z,20.37
2019-05-22T23:44:38.934Z,20.90
2019-05-22T23:45:43.963Z,19.37
2019-05-22T23:46:50.466Z,18.33
2019-05-22T23:48:06.508Z,18.97
2019-05-22T23:49:12.453Z,18.87
2019-05-22T23:50:17.624Z,18.20
2019-05-22T23:51:23.516Z,17.43
2019-05-22T23:52:29.101Z,19.13
2019-05-22T23:53:36.236Z,18.57
2019-05-22T23:54:41.344Z,18.93
2019-05-22T23:55:47.080Z,19.03
2019-05-22T23:56:52.122Z,17.33
2019-05-22T23:57:59.188Z,16.07
2019-05-22T23:59:04.152Z,16.07
